Inicio METAR Ruta Wind Satelite

Informe Meteorológico

Fecha: 2020/11/30 15:33:30 Local
2020.11.30 20:33 UTC


Estado: VENCIDO
Operación:
Apartado / Los Cedros, Colombia (SKLC) 07-49N 076-42W
2020.09.30 1900 UTC
Wind: from the SSW (200 degrees) at 12 MPH (10 KT):0
Visibility: greater than 7 mile(s):0
Sky conditions: partly cloudy
Temperature: 86 F (30 C)
Heat index: 93.4 F (34.1 C):1
Dew Point: 73 F (23 C)
Relative Humidity: 66%
Pressure (altimeter): 29.78 in. Hg (1008 hPa)
ob: SKLC 301900Z 20010KT 9999 SCT020 30/23 A2978
cycle: 19